Maxwell AFB Gunter Annex, Alabama
Current Conditions -  °F | °C
As of 5:58 PM on Friday 28 Nov 2014 (Local Time) from KMXF Reporting Station
Clear Clear  
Wind Chill: 43°   Ceiling: Unl
Heat Index: 43°   Visibility: 10mi
Dew Point: 27°   Wind: 1mph
Humidity: 54%   Direction: 230°SW
Pressure: 30.3"   Gusts: NA
Location:  32.4045°N, 86.2459°W
Report Text: KMXF 282358Z AUTO 23001KT 10SM CLR 06/M03 A3030 RMK AO2 SLP265 T00601028 10122 20058 55005
Loading
Personal Weather Stations






























Interactive Weather Map New forecast layout! Learn more

10-Day Weather Forecast

Advertisements
Track Severe Weather on mobile